.
WxDataArchive / Data Records for 2014-07-04
2014-07-03 July 2014 2014-07-05

Data Records for Friday, 04 July 2014

Time	Temp	Chill	HIndex	Humid	Dewpt	 Wind 	HiWind	WindDir	Rain 	Barom
-----	----	-----	------	-----	-----	------	------	-------	-----	-----
00:00	57.6	57.6	57.6	70	47.9	0	0	---	0.00	30.158 
00:05	57.6	57.6	57.6	71	48.3	0	0	---	0.00	30.158 
00:10	57.6	57.6	57.6	70	47.9	0	0	---	0.00	30.158 
00:15	57.8	57.8	57.8	71	48.5	0	0	---	0.00	30.157 
00:20	57.8	57.8	57.8	69	47.7	0	0	---	0.00	30.157 
00:25	57.8	57.8	57.8	69	47.7	0	0	---	0.00	30.157 
00:30	58.0	58.0	58.0	68	47.5	0	0	---	0.00	30.158 
00:35	58.1	58.1	58.1	68	47.6	0	0	---	0.00	30.158 
00:40	58.3	58.3	58.3	68	47.8	0	0	---	0.00	30.158 
00:45	58.4	58.4	58.4	67	47.5	0	0	---	0.00	30.159 
00:50	58.4	58.4	58.4	67	47.5	0	0	---	0.00	30.159 
00:55	58.4	58.4	58.4	67	47.5	0	1	315	0.00	30.159 
01:00	58.6	58.6	58.6	67	47.7	0	0	---	0.00	30.158 
01:05	58.4	58.4	58.4	68	47.9	0	0	---	0.00	30.158 
01:10	58.3	58.3	58.3	68	47.8	0	0	---	0.00	30.158 
01:15	58.3	58.3	58.3	68	47.8	0	0	---	0.00	30.158 
01:20	58.1	58.1	58.1	68	47.6	0	0	---	0.00	30.158 
01:25	58.0	58.0	58.0	69	47.9	0	0	---	0.00	30.158 
01:30	58.0	58.0	58.0	69	47.9	0	0	---	0.00	30.157 
01:35	57.8	57.8	57.8	69	47.7	0	0	---	0.00	30.157 
01:40	57.6	57.6	57.6	69	47.5	0	0	---	0.00	30.157 
01:45	57.5	57.5	57.5	70	47.8	0	0	---	0.00	30.157 
01:50	57.2	57.2	57.2	70	47.5	0	0	---	0.00	30.157 
01:55	57.0	57.0	57.0	71	47.7	0	0	---	0.00	30.157 
02:00	57.0	57.0	57.0	71	47.7	0	0	---	0.00	30.158 
02:05	57.0	57.0	57.0	73	48.4	0	0	---	0.00	30.158 
02:10	56.9	56.9	56.9	73	48.3	0	0	---	0.00	30.158 
02:15	56.9	56.9	56.9	73	48.3	0	0	---	0.00	30.159 
02:20	56.9	56.9	56.9	72	48.0	0	0	---	0.00	30.159 
02:25	56.9	56.9	56.9	73	48.3	0	0	---	0.00	30.159 
02:30	56.7	56.7	56.7	73	48.1	0	0	---	0.00	30.162 
02:35	56.5	56.5	56.5	74	48.3	0	0	---	0.00	30.162 
02:40	56.3	56.3	56.3	75	48.5	0	0	---	0.00	30.162 
02:45	56.2	56.2	56.2	75	48.4	0	0	---	0.00	30.163 
02:50	55.9	55.9	55.9	76	48.4	0	0	---	0.00	30.163 
02:55	55.7	55.7	55.7	76	48.3	0	0	---	0.00	30.163 
03:00	55.6	55.6	55.6	76	48.2	0	0	---	0.00	30.162 
03:05	55.4	55.4	55.4	77	48.3	0	0	---	0.00	30.162 
03:10	55.3	55.3	55.3	77	48.2	0	0	---	0.00	30.162 
03:15	55.1	55.1	55.1	77	48.0	0	0	---	0.00	30.162 
03:20	55.1	55.1	55.1	78	48.4	0	0	---	0.00	30.162 
03:25	55.0	55.0	55.0	78	48.3	0	0	---	0.00	30.162 
03:30	55.0	55.0	55.0	78	48.3	0	1	315	0.00	30.161 
03:35	54.8	54.8	54.8	78	48.1	0	0	---	0.00	30.161 
03:40	54.8	54.8	54.8	79	48.4	0	0	---	0.00	30.161 
03:45	54.7	54.7	54.7	79	48.3	0	0	---	0.00	30.162 
03:50	54.7	54.7	54.7	79	48.3	0	0	---	0.00	30.162 
03:55	54.5	54.5	54.5	80	48.5	0	1	315	0.00	30.162 
04:00	54.5	54.5	54.5	80	48.5	0	0	---	0.00	30.171 
04:05	54.5	54.5	54.5	80	48.5	0	0	---	0.00	30.171 
04:10	54.7	54.7	54.7	80	48.7	0	0	---	0.00	30.171 
04:15	54.7	54.7	54.7	80	48.7	0	0	---	0.00	30.171 
04:20	54.7	54.7	54.7	80	48.7	0	0	---	0.00	30.171 
04:25	54.5	54.5	54.5	80	48.5	0	0	---	0.00	30.171 
04:30	54.5	54.5	54.5	80	48.5	0	0	---	0.00	30.176 
04:35	54.5	54.5	54.5	80	48.5	0	0	---	0.00	30.176 
04:40	54.7	54.7	54.7	80	48.7	0	0	---	0.00	30.176 
04:45	54.7	54.7	54.7	80	48.7	0	1	315	0.00	30.182 
04:50	54.7	54.7	54.7	80	48.7	0	0	---	0.00	30.182 
04:55	54.8	54.8	54.8	80	48.7	0	1	315	0.00	30.182 
05:00	54.8	54.8	54.8	80	48.7	0	1	315	0.00	30.186 
05:05	55.0	55.0	55.0	80	48.9	0	1	315	0.00	30.186 
05:10	55.0	55.0	55.0	80	48.9	0	1	315	0.00	30.186 
05:15	55.0	55.0	55.0	80	48.9	0	1	315	0.00	30.188 
05:20	54.8	54.8	54.8	80	48.7	0	0	---	0.00	30.188 
05:25	54.8	54.8	54.8	80	48.7	0	0	---	0.00	30.188 
05:30	54.7	54.7	54.7	80	48.7	0	0	---	0.00	30.189 
05:35	54.7	54.7	54.7	81	49.0	0	1	315	0.00	30.189 
05:40	54.7	54.7	54.7	81	49.0	0	0	---	0.00	30.189 
05:45	54.7	54.7	54.7	81	49.0	0	0	---	0.00	30.201 
05:50	54.5	54.5	54.5	81	48.8	0	1	315	0.00	30.201 
05:55	54.5	54.5	54.5	81	48.8	0	0	---	0.00	30.201 
06:00	54.4	54.4	54.4	82	49.0	0	0	---	0.00	30.203 
06:05	54.2	54.2	54.2	82	48.8	0	0	---	0.00	30.203 
06:10	54.1	54.1	54.1	83	49.1	0	0	---	0.00	30.203 
06:15	54.1	54.1	54.1	83	49.1	0	0	---	0.00	30.209 
06:20	54.1	54.1	54.1	84	49.4	0	1	315	0.00	30.209 
06:25	54.1	54.1	54.1	84	49.4	0	0	---	0.00	30.209 
06:30	54.1	54.1	54.1	84	49.4	0	0	---	0.00	30.217 
06:35	53.9	53.9	53.9	84	49.2	0	0	---	0.00	30.217 
06:40	54.1	54.1	54.1	84	49.4	0	0	---	0.00	30.217 
06:45	54.1	54.1	54.1	84	49.4	0	1	315	0.00	30.222 
06:50	54.2	54.2	54.2	84	49.5	0	1	315	0.00	30.222 
06:55	54.4	54.4	54.4	84	49.7	0	0	---	0.00	30.222 
07:00	54.5	54.5	54.5	84	49.8	0	1	315	0.00	30.222 
07:05	54.8	54.8	54.8	84	50.1	0	0	---	0.00	30.222 
07:10	55.1	55.1	55.1	84	50.4	0	1	315	0.00	30.222 
07:15	55.3	55.3	55.3	83	50.2	0	1	315	0.00	30.234 
07:20	55.7	55.7	55.7	83	50.6	0	1	315	0.00	30.234 
07:25	56.0	56.0	56.0	82	50.6	0	1	315	0.00	30.234 
07:30	56.3	56.3	56.3	81	50.5	0	1	315	0.00	30.236 
07:35	56.7	56.7	56.7	81	50.9	0	2	315	0.00	30.236 
07:40	57.0	57.0	57.0	80	50.9	0	1	315	0.00	30.236 
07:45	57.5	57.5	57.5	79	51.0	0	1	315	0.00	30.246 
07:50	57.8	57.8	57.8	78	51.0	0	1	315	0.00	30.246 
07:55	58.3	58.3	58.3	77	51.1	1	2	315	0.00	30.246 
08:00	58.7	58.7	58.7	77	51.5	0	1	315	0.00	30.249 
08:05	59.0	59.0	59.0	76	51.4	0	2	315	0.00	30.249 
08:10	59.5	59.5	59.5	75	51.6	0	2	315	0.00	30.249 
08:15	60.1	60.1	60.1	76	52.5	0	2	315	0.00	30.251 
08:20	60.4	60.4	60.4	72	51.3	1	2	315	0.00	30.251 
08:25	60.9	60.9	60.9	72	51.8	0	2	315	0.00	30.251 
08:30	61.2	61.2	61.2	73	52.5	0	1	315	0.00	30.255 
08:35	61.8	61.8	61.8	71	52.3	0	1	315	0.00	30.255 
08:40	62.1	62.1	62.1	69	51.8	1	2	315	0.00	30.255 
08:45	62.4	62.4	62.4	69	52.1	0	2	315	0.00	30.262 
08:50	62.7	62.7	62.7	69	52.4	0	2	315	0.00	30.262 
08:55	63.1	63.1	63.1	67	52.0	1	3	315	0.00	30.262 
09:00	63.2	63.2	63.2	67	52.1	1	3	315	0.00	30.264 
09:05	63.7	63.7	63.7	67	52.5	0	3	315	0.00	30.264 
09:10	64.5	64.5	64.5	67	53.3	0	1	315	0.00	30.264 
09:15	65.2	65.2	65.2	68	54.4	0	2	315	0.00	30.267 
09:20	65.8	65.8	65.8	66	54.1	0	1	315	0.00	30.267 
09:25	66.1	66.1	66.1	63	53.1	0	2	315	0.00	30.267 
09:30	66.3	66.3	66.3	62	52.9	1	3	315	0.00	30.271 
09:35	66.3	66.3	66.3	62	52.9	1	3	315	0.00	30.271 
09:40	66.9	66.9	66.9	63	53.9	1	4	112	0.00	30.271 
09:45	67.8	67.8	67.8	62	54.3	0	2	112	0.00	30.273 
09:50	68.1	68.1	68.1	60	53.7	1	5	112	0.00	30.273 
09:55	67.8	67.8	67.8	58	52.5	1	4	270	0.00	30.273 
10:00	68.1	68.1	68.1	57	52.3	1	3	68	0.00	30.274 
10:05	68.6	68.6	68.6	57	52.7	0	1	68	0.00	30.274 
10:10	69.3	69.3	69.3	54	51.9	1	4	68	0.00	30.274 
10:15	69.6	69.6	69.6	54	52.2	1	4	68	0.00	30.268 
10:20	70.1	70.1	70.1	54	52.7	0	3	112	0.00	30.268 
10:25	69.8	69.8	69.8	50	50.3	1	4	292	0.00	30.268 
10:30	69.6	69.6	69.6	52	51.2	1	4	22	0.00	30.267 
10:35	70.3	70.3	70.3	48	49.7	1	4	225	0.00	30.267 
10:40	70.6	70.6	70.6	47	49.4	1	5	135	0.00	30.267 
10:45	71.1	71.1	71.1	46	49.3	1	4	135	0.00	30.267 
10:50	71.3	71.3	71.3	46	49.4	1	6	112	0.00	30.267 
10:55	71.5	71.5	71.5	46	49.6	1	4	22	0.00	30.267 
11:00	71.8	71.8	71.8	46	49.9	1	3	45	0.00	30.266 
11:05	72.3	72.3	72.3	46	50.3	0	3	45	0.00	30.266 
11:10	72.0	72.0	72.0	41	47.0	1	5	292	0.00	30.266 
11:15	71.5	71.5	71.5	43	47.8	1	5	315	0.00	30.270 
11:20	71.5	71.5	71.5	42	47.2	1	3	292	0.00	30.270 
11:25	71.8	71.8	71.8	40	46.2	2	6	315	0.00	30.270 
11:30	72.0	72.0	72.0	43	48.3	1	6	0	0.00	30.273 
11:35	72.5	72.5	72.5	39	46.1	1	5	315	0.00	30.273 
11:40	72.3	72.3	72.3	41	47.3	1	4	45	0.00	30.273 
11:45	72.3	72.3	72.3	40	46.6	2	5	292	0.00	30.275 
11:50	72.7	72.7	72.7	40	47.0	1	6	180	0.00	30.275 
11:55	73.0	73.0	73.0	41	47.9	1	4	45	0.00	30.275 
12:00	73.5	73.5	73.5	39	47.0	1	6	135	0.00	30.276 
12:05	74.0	74.0	74.0	40	48.1	1	3	112	0.00	30.276 
12:10	74.2	74.2	74.2	36	45.5	2	5	90	0.00	30.276 
12:15	74.2	74.2	74.2	36	45.5	1	5	68	0.00	30.274 
12:20	74.2	74.2	74.2	37	46.2	1	4	68	0.00	30.274 
12:25	73.9	73.9	73.9	39	47.4	0	4	315	0.00	30.274 
12:30	73.7	73.7	73.7	38	46.5	1	4	315	0.00	30.271 
12:35	73.9	73.9	73.9	39	47.4	2	5	90	0.00	30.271 
12:40	74.4	74.4	74.4	36	45.7	1	6	135	0.00	30.271 
12:45	74.9	74.9	74.9	35	45.4	2	5	112	0.00	30.268 
12:50	74.9	74.9	74.9	40	48.9	1	5	135	0.00	30.268 
12:55	75.1	75.1	77.5	39	48.4	0	3	68	0.00	30.268 
13:00	75.3	75.3	77.5	38	47.9	1	5	68	0.00	30.265 
13:05	75.3	75.3	77.5	38	47.9	1	3	112	0.00	30.265 
13:10	74.7	74.7	74.7	36	46.0	1	3	112	0.00	30.265 
13:15	74.4	74.4	74.4	35	44.9	1	5	292	0.00	30.267 
13:20	74.4	74.4	74.4	36	45.7	1	4	315	0.00	30.267 
13:25	74.4	74.4	74.4	32	42.6	1	4	315	0.00	30.267 
13:30	74.9	74.9	74.9	33	43.8	2	5	292	0.00	30.261 
13:35	74.7	74.7	74.7	38	47.4	1	6	338	0.00	30.261 
13:40	75.1	75.1	77.5	40	49.1	0	3	338	0.00	30.261 
13:45	75.6	75.6	77.4	34	45.2	1	3	338	0.00	30.261 
13:50	75.8	75.8	77.2	30	42.1	2	4	338	0.00	30.261 
13:55	75.6	75.6	77.3	33	44.5	1	4	292	0.00	30.261 
14:00	75.4	75.4	77.1	30	41.8	2	6	292	0.00	30.259 
14:05	75.3	75.3	77.2	32	43.4	1	3	315	0.00	30.259 
14:10	75.3	75.3	77.2	33	44.2	2	5	315	0.00	30.259 
14:15	75.4	75.4	77.4	36	46.6	0	4	292	0.00	30.259 
14:20	76.1	76.1	77.6	34	45.7	0	2	135	0.00	30.259 
14:25	76.0	76.0	77.4	32	44.0	2	5	315	0.00	30.259 
14:30	75.6	75.6	77.1	30	42.0	1	4	0	0.00	30.250 
14:35	75.4	75.4	77.3	33	44.3	2	5	292	0.00	30.250 
14:40	75.6	75.6	77.2	31	42.8	1	5	90	0.00	30.250 
14:45	75.8	75.8	77.3	32	43.8	1	4	90	0.00	30.251 
14:50	76.0	76.0	77.5	33	44.8	0	2	338	0.00	30.251 
14:55	76.5	76.5	77.3	27	40.0	1	6	68	0.00	30.251 
15:00	76.7	76.7	77.5	30	42.9	1	4	292	0.00	30.248 
15:05	76.5	76.5	77.5	30	42.7	1	4	292	0.00	30.248 
15:10	76.7	76.7	77.5	30	42.9	1	4	112	0.00	30.248 
15:15	76.7	76.7	77.6	31	43.8	0	2	338	0.00	30.247 
15:20	76.8	76.8	77.6	30	43.0	1	3	315	0.00	30.247 
15:25	76.8	76.8	77.8	33	45.5	2	5	315	0.00	30.247 
15:30	76.7	76.7	77.5	30	42.9	0	3	315	0.00	30.248 
15:35	77.0	77.0	78.0	35	47.2	1	4	315	0.00	30.248 
15:40	77.0	77.0	77.5	28	41.4	1	5	338	0.00	30.248 
15:45	77.0	77.0	77.5	28	41.4	0	2	338	0.00	30.247 
15:50	77.6	77.6	78.3	36	48.5	1	3	90	0.00	30.247 
15:55	77.4	77.4	77.8	29	42.6	1	4	0	0.00	30.247 
16:00	77.2	77.2	77.8	31	44.2	1	3	225	0.00	30.247 
16:05	77.2	77.2	77.8	31	44.2	0	2	292	0.00	30.247 
16:10	77.2	77.2	77.8	30	43.3	0	2	292	0.00	30.247 
16:15	77.4	77.4	77.8	29	42.6	1	3	292	0.00	30.245 
16:20	77.2	77.2	77.8	31	44.2	1	3	112	0.00	30.245 
16:25	77.2	77.2	77.8	31	44.2	0	2	112	0.00	30.245 
16:30	77.2	77.2	77.8	30	43.3	1	4	315	0.00	30.246 
16:35	77.2	77.2	77.8	31	44.2	0	3	22	0.00	30.246 
16:40	77.2	77.2	77.8	31	44.2	2	6	90	0.00	30.246 
16:45	77.0	77.0	77.9	33	45.7	1	7	315	0.00	30.246 
16:50	77.0	77.0	77.7	31	44.0	1	4	135	0.00	30.246 
16:55	77.0	77.0	77.7	31	44.0	1	4	292	0.00	30.246 
17:00	76.8	76.8	77.6	30	43.0	2	4	292	0.00	30.247 
17:05	77.0	77.0	77.8	32	44.9	1	3	292	0.00	30.247 
17:10	77.0	77.0	77.8	32	44.9	1	4	90	0.00	30.247 
17:15	77.2	77.2	77.8	30	43.3	1	4	90	0.00	30.250 
17:20	77.2	77.2	77.7	29	42.5	1	3	315	0.00	30.250 
17:25	77.2	77.2	77.8	30	43.3	1	3	315	0.00	30.250 
17:30	77.2	77.2	77.9	32	45.0	1	3	315	0.00	30.248 
17:35	77.0	77.0	77.7	30	43.2	0	2	315	0.00	30.248 
17:40	77.0	77.0	77.8	32	44.9	1	3	315	0.00	30.248 
17:45	77.0	77.0	77.8	32	44.9	0	2	315	0.00	30.247 
17:50	77.2	77.2	77.8	30	43.3	1	4	315	0.00	30.247 
17:55	76.8	76.8	77.5	29	42.1	2	4	315	0.00	30.247 
18:00	76.3	76.3	77.5	31	43.4	1	3	315	0.00	30.240 
18:05	76.1	76.1	77.3	30	42.4	0	2	315	0.00	30.240 
18:10	76.1	76.1	77.4	31	43.3	0	3	315	0.00	30.240 
18:15	76.1	76.1	77.6	35	46.4	0	2	248	0.00	30.238 
18:20	76.0	76.0	77.5	33	44.8	1	3	248	0.00	30.238 
18:25	75.8	75.8	77.4	33	44.6	1	2	248	0.00	30.238 
18:30	75.6	75.6	77.4	35	46.0	2	5	315	0.00	30.234 
18:35	75.4	75.4	77.3	34	45.1	0	1	338	0.00	30.234 
18:40	75.4	75.4	77.4	35	45.8	0	3	45	0.00	30.234 
18:45	75.3	75.3	77.3	34	45.0	1	3	112	0.00	30.235 
18:50	75.3	75.3	77.3	34	45.0	0	2	112	0.00	30.235 
18:55	75.3	75.3	77.4	35	45.7	0	2	112	0.00	30.235 
19:00	75.3	75.3	77.4	35	45.7	0	1	112	0.00	30.235 
19:05	75.4	75.4	77.3	34	45.1	0	2	112	0.00	30.235 
19:10	75.3	75.3	77.3	34	45.0	1	3	338	0.00	30.235 
19:15	75.3	75.3	77.5	37	47.2	0	2	338	0.00	30.238 
19:20	75.1	75.1	77.2	34	44.8	0	3	338	0.00	30.238 
19:25	74.9	74.9	74.9	33	43.8	0	3	338	0.00	30.238 
19:30	74.9	74.9	74.9	36	46.1	0	1	338	0.00	30.241 
19:35	74.7	74.7	74.7	34	44.4	0	3	338	0.00	30.241 
19:40	74.7	74.7	74.7	36	46.0	0	2	338	0.00	30.241 
19:45	74.6	74.6	74.6	34	44.4	0	1	338	0.00	30.245 
19:50	74.6	74.6	74.6	37	46.6	0	1	315	0.00	30.245 
19:55	74.4	74.4	74.4	35	44.9	0	1	315	0.00	30.245 
20:00	74.2	74.2	74.2	36	45.5	0	2	315	0.00	30.248 
20:05	74.2	74.2	74.2	39	47.6	0	1	315	0.00	30.248 
20:10	74.0	74.0	74.0	37	46.1	0	2	315	0.00	30.248 
20:15	73.9	73.9	73.9	37	46.0	0	1	315	0.00	30.247 
20:20	73.9	73.9	73.9	37	46.0	0	1	315	0.00	30.247 
20:25	73.5	73.5	73.5	37	45.6	0	1	315	0.00	30.247 
20:30	73.3	73.3	73.3	37	45.4	0	1	315	0.00	30.250 
20:35	73.2	73.2	73.2	37	45.4	0	1	315	0.00	30.250 
20:40	72.8	72.8	72.8	38	45.7	0	0	---	0.00	30.250 
20:45	72.3	72.3	72.3	39	45.9	0	0	---	0.00	30.248 
20:50	72.0	72.0	72.0	39	45.7	0	0	---	0.00	30.248 
20:55	71.6	71.6	71.6	40	46.0	0	0	---	0.00	30.248 
21:00	71.3	71.3	71.3	42	47.0	0	0	---	0.00	30.247 
21:05	70.9	70.9	70.9	43	47.3	0	0	---	0.00	30.247 
21:10	70.6	70.6	70.6	43	47.0	0	0	---	0.00	30.247 
21:15	70.1	70.1	70.1	44	47.2	0	0	---	0.00	30.247 
21:20	69.6	69.6	69.6	46	47.9	0	0	---	0.00	30.247 
21:25	69.1	69.1	69.1	46	47.4	0	0	---	0.00	30.247 
21:30	68.6	68.6	68.6	48	48.1	0	0	---	0.00	30.252 
21:35	68.3	68.3	68.3	49	48.4	0	0	---	0.00	30.252 
21:40	67.8	67.8	67.8	50	48.5	0	0	---	0.00	30.252 
21:45	67.3	67.3	67.3	51	48.5	0	0	---	0.00	30.259 
21:50	66.9	66.9	66.9	53	49.2	0	0	---	0.00	30.259 
21:55	66.4	66.4	66.4	53	48.7	0	0	---	0.00	30.259 
22:00	66.1	66.1	66.1	54	49.0	0	0	---	0.00	30.260 
22:05	65.6	65.6	65.6	54	48.5	0	0	---	0.00	30.260 
22:10	65.2	65.2	65.2	56	49.1	0	0	---	0.00	30.260 
22:15	64.8	64.8	64.8	57	49.2	0	0	---	0.00	30.263 
22:20	64.3	64.3	64.3	58	49.2	0	0	---	0.00	30.263 
22:25	63.9	63.9	63.9	59	49.3	0	0	---	0.00	30.263 
22:30	63.5	63.5	63.5	60	49.4	0	0	---	0.00	30.270 
22:35	63.2	63.2	63.2	60	49.1	0	0	---	0.00	30.270 
22:40	62.9	62.9	62.9	62	49.7	0	0	---	0.00	30.270 
22:45	62.6	62.6	62.6	62	49.4	0	0	---	0.00	30.275 
22:50	62.4	62.4	62.4	63	49.6	0	0	---	0.00	30.275 
22:55	62.1	62.1	62.1	64	49.8	0	0	---	0.00	30.275 
23:00	61.8	61.8	61.8	65	49.9	0	0	---	0.00	30.275 
23:05	61.5	61.5	61.5	67	50.4	0	0	---	0.00	30.275 
23:10	61.2	61.2	61.2	68	50.5	0	0	---	0.00	30.275 
23:15	60.9	60.9	60.9	69	50.7	0	0	---	0.00	30.275 
23:20	60.7	60.7	60.7	70	50.9	0	0	---	0.00	30.275 
23:25	60.4	60.4	60.4	71	50.9	0	0	---	0.00	30.275 
23:30	60.2	60.2	60.2	71	50.8	0	0	---	0.00	30.274 
23:35	60.1	60.1	60.1	72	51.0	0	0	---	0.00	30.274 
23:40	59.9	59.9	59.9	73	51.2	0	0	---	0.00	30.274 
23:45	59.6	59.6	59.6	74	51.3	0	0	---	0.00	30.276 
23:50	59.5	59.5	59.5	75	51.6	0	0	---	0.00	30.276 
23:55	59.3	59.3	59.3	76	51.7	0	0	---	0.00	30.276 

CoCoRaHS
IN-AL-39
A2 Web Hosting
Creative Commons License
GoDaddy
search engine by freefind advanced

loaded 2018-11-17 18:18:35 • last modified 2010-11-18 10:43:29
Privacy PolicyDisclaimer
• wx.awcolley.com is powered by PmWiki v.2002016 •
• all content (unless otherwise noted) © 2018 A W Colley